Avoca, Texas
Current Conditions -  °F | °C
As of 10:52 AM on Friday 31 Oct 2014 (Local Time) from KABI Reporting Station
Clear Clear  
Wind Chill: 61°   Ceiling: Unl
Heat Index: 61°   Visibility: 10mi
Dew Point: 36°   Wind: 12mph
Humidity: 39%   Direction: 30°NNE
Pressure: 30.4"   Gusts: NA
Location:  32.87°N, 99.72°W
Report Text: KABI 311552Z 03010KT 10SM CLR 16/02 A3040 RMK AO2 SLP279 T01610022
Loading
Personal Weather Stations






























Interactive Weather Map
Tropical Storm Tracking
New forecast layout! Learn more

10-Day Weather Forecast

Advertisements
Track Severe Weather on mobile